CheckWX is a tool to help pilots better visualize weather data.  It is not intended as a substitute for an official pre-flight weather briefing.

08:13:21 UTC

WIMM TAF
Medan / Polonia International Airport
Medan-Sumatra Island, Indonesia
TAF WIMM 220500Z 2206/2306 03010KT 9000 SCT018 BECMG 2212/2214 22005KT 4000 HZ

Feb-22@
06:00 UTC

Feb-22 @ 06:00 UTC

Feb-22@
12:00 UTC

Feb-22 @ 12:00 UTC

TAF WIMM 220500Z 2206/2306 03010KT 9000 SCT018
Wind
  • 030° at 10 KTS
Cloud Levels
  • Scattered at 1,800' AGL

Feb-22@
12:00 UTC

Feb-22 @ 12:00 UTC

Feb-23@
06:00 UTC

Feb-23 @ 06:00 UTC

BECMG 2212/2214 22005KT 4000 HZ

Becoming

BecomingConditions expected by Fri, Feb 22, 2019 @ 14:00 UTC

Wind
  • 220° at 5 KTS
Conditions
Haze
Cloud Levels
  • Scattered at 1,800' AGL